Terminal Aerodrome Forecast
Issued by NWS Shreveport, LA

Home | Current Version | Previous Version | Text Only | Print | Product List | Glossary On
Versions: 1 2 3 4 5 6 7 8 9 10 11 12 13 14
828
FTUS44 KSHV 291121
TAFGGG
TAF
KGGG 291121Z 2912/3012 VRB05KT P6SM BKN080 OVC140
      TEMPO 2912/2916 5SM -SHRA BR OVC050
     FM291600 VRB06KT P6SM VCSH SCT050 OVC080
     FM292100 03007KT P6SM BKN045
     FM300100 07004KT P6SM SCT045 SCT250=

USA.gov is the U.S. government's official web portal to all federal, state and local government web resources and services.